createdAt,value
2022-12-26T00:01:11.510Z,100417.59
2022-12-26T00:03:39.894Z,100418.09
2022-12-26T00:06:16.233Z,100412.50
2022-12-26T00:08:44.690Z,100428.44
2022-12-26T00:11:12.747Z,100417.00
2022-12-26T00:13:41.781Z,100417.81
2022-12-26T00:16:16.003Z,100407.97
2022-12-26T00:18:44.967Z,100422.53
2022-12-26T00:21:14.187Z,100418.09
2022-12-26T00:23:43.080Z,100417.34
2022-12-26T00:26:13.052Z,100414.72
2022-12-26T00:28:41.307Z,100409.59
2022-12-26T00:31:12.518Z,100406.94
2022-12-26T00:33:40.911Z,100403.13
2022-12-26T00:36:14.201Z,100407.34
2022-12-26T00:38:43.675Z,100405.22
2022-12-26T00:41:12.023Z,100404.56
2022-12-26T00:43:39.641Z,100420.66
2022-12-26T00:46:08.387Z,100409.84
2022-12-26T00:48:36.442Z,100412.91
2022-12-26T00:51:04.411Z,100406.97
2022-12-26T00:53:33.216Z,100419.72
2022-12-26T00:56:01.141Z,100417.63
2022-12-26T00:58:29.917Z,100426.28
2022-12-26T01:01:31.135Z,100426.03
2022-12-26T01:03:59.174Z,100420.56
2022-12-26T01:06:27.272Z,100411.00
2022-12-26T01:08:55.043Z,100406.94
2022-12-26T01:11:40.835Z,100409.28
2022-12-26T01:14:14.475Z,100417.78
2022-12-26T01:16:44.131Z,100406.25
2022-12-26T01:19:12.969Z,100410.34
2022-12-26T01:21:42.178Z,100409.91
2022-12-26T01:24:09.870Z,100410.88
2022-12-26T01:26:37.759Z,100407.88
2022-12-26T01:29:05.513Z,100400.19
2022-12-26T01:31:33.066Z,100390.63
2022-12-26T01:34:01.315Z,100391.69
2022-12-26T01:36:28.891Z,100393.97
2022-12-26T01:38:56.432Z,100382.13
2022-12-26T01:41:24.344Z,100386.03
2022-12-26T01:43:53.488Z,100386.25
2022-12-26T01:46:26.727Z,100390.75
2022-12-26T01:48:56.720Z,100379.50
2022-12-26T01:51:25.883Z,100373.03
2022-12-26T01:54:39.887Z,100376.53
2022-12-26T01:56:45.686Z,100380.41
2022-12-26T01:59:19.879Z,100374.88
2022-12-26T02:01:49.619Z,100366.59
2022-12-26T02:04:51.608Z,100370.00
2022-12-26T02:07:20.465Z,100364.06
2022-12-26T02:09:48.086Z,100363.56
2022-12-26T02:12:34.204Z,100374.94
2022-12-26T02:15:14.037Z,100372.37
2022-12-26T02:17:41.921Z,100365.28
2022-12-26T02:20:12.975Z,100371.81
2022-12-26T02:22:51.795Z,100374.34
2022-12-26T02:25:31.868Z,100363.53
2022-12-26T02:28:16.710Z,100361.00
2022-12-26T02:30:51.295Z,100374.91
2022-12-26T02:33:22.345Z,100372.22
2022-12-26T02:36:15.554Z,100371.91
2022-12-26T02:38:58.791Z,100370.72
2022-12-26T02:41:31.526Z,100355.25
2022-12-26T02:44:36.494Z,100364.62
2022-12-26T02:47:26.555Z,100348.53
2022-12-26T02:50:38.249Z,100348.06
2022-12-26T02:53:42.826Z,100348.13
2022-12-26T02:56:39.091Z,100368.47
2022-12-26T02:59:55.188Z,100357.22
2022-12-26T03:03:14.456Z,100355.19
2022-12-26T03:06:06.399Z,100336.72
2022-12-26T03:08:56.956Z,100329.66
2022-12-26T03:11:48.420Z,100337.72
2022-12-26T03:14:20.991Z,100338.25
2022-12-26T03:17:09.891Z,100341.53
2022-12-26T03:19:58.153Z,100342.09
2022-12-26T03:22:31.390Z,100332.66
2022-12-26T03:25:28.266Z,100329.09
2022-12-26T03:27:58.828Z,100330.62
2022-12-26T03:30:44.939Z,100345.19
2022-12-26T03:33:31.337Z,100336.41
2022-12-26T03:36:00.204Z,100338.47
2022-12-26T03:38:35.829Z,100348.81
2022-12-26T03:41:36.481Z,100351.69
2022-12-26T03:44:45.268Z,100356.06
2022-12-26T03:47:33.503Z,100359.13
2022-12-26T03:50:25.779Z,100353.50
2022-12-26T03:53:21.482Z,100360.31
2022-12-26T03:56:15.890Z,100367.03
2022-12-26T03:59:35.476Z,100360.00
2022-12-26T04:02:25.138Z,100361.78
2022-12-26T04:05:13.904Z,100366.19
2022-12-26T04:08:11.106Z,100372.03
2022-12-26T04:11:07.322Z,100376.13
2022-12-26T04:14:13.673Z,100381.19
2022-12-26T04:17:23.915Z,100370.53
2022-12-26T04:20:00.435Z,100359.16
2022-12-26T04:22:56.741Z,100373.06
2022-12-26T04:25:48.541Z,100374.53
2022-12-26T04:28:39.484Z,100385.91
2022-12-26T04:31:28.521Z,100373.25
2022-12-26T04:34:18.464Z,100365.34
2022-12-26T04:37:20.946Z,100362.56
2022-12-26T04:40:10.785Z,100357.16
2022-12-26T04:42:58.629Z,100369.09
2022-12-26T04:45:28.719Z,100377.75
2022-12-26T04:48:15.239Z,100370.84
2022-12-26T04:50:51.812Z,100370.97
2022-12-26T04:53:20.438Z,100357.12
2022-12-26T04:55:48.438Z,100351.94
2022-12-26T04:58:17.911Z,100362.41
2022-12-26T05:00:45.349Z,100367.38
2022-12-26T05:03:33.197Z,100362.22
2022-12-26T05:06:19.787Z,100358.84
2022-12-26T05:09:07.125Z,100359.56
2022-12-26T05:11:35.421Z,100359.50
2022-12-26T05:14:03.309Z,100359.19
2022-12-26T05:16:49.995Z,100364.53
2022-12-26T05:19:36.774Z,100368.59
2022-12-26T05:22:23.382Z,100378.53
2022-12-26T05:25:10.991Z,100364.19
2022-12-26T05:28:00.748Z,100352.53
2022-12-26T05:30:29.239Z,100358.16
2022-12-26T05:33:15.467Z,100369.13
2022-12-26T05:35:43.708Z,100366.44
2022-12-26T05:38:12.071Z,100357.34
2022-12-26T05:40:39.760Z,100359.91
2022-12-26T05:43:08.063Z,100355.31
2022-12-26T05:45:35.713Z,100357.62
2022-12-26T05:48:03.402Z,100348.53
2022-12-26T05:50:31.817Z,100345.69
2022-12-26T05:52:59.910Z,100348.94
2022-12-26T05:55:27.459Z,100357.53
2022-12-26T05:57:56.868Z,100355.50
2022-12-26T06:00:24.406Z,100364.19
2022-12-26T06:02:52.333Z,100363.09
2022-12-26T06:05:20.119Z,100361.63
2022-12-26T06:07:48.152Z,100363.00
2022-12-26T06:10:16.154Z,100358.66
2022-12-26T06:12:43.943Z,100360.59
2022-12-26T06:15:12.823Z,100355.31
2022-12-26T06:17:41.030Z,100352.94
2022-12-26T06:20:08.954Z,100357.75
2022-12-26T06:22:36.907Z,100349.69
2022-12-26T06:25:05.254Z,100348.50
2022-12-26T06:27:33.027Z,100342.69
2022-12-26T06:30:00.594Z,100353.16
2022-12-26T06:32:28.777Z,100342.19
2022-12-26T06:34:56.363Z,100344.03
2022-12-26T06:37:23.749Z,100343.78
2022-12-26T06:39:51.676Z,100344.94
2022-12-26T06:42:19.458Z,100353.47
2022-12-26T06:44:47.074Z,100355.44
2022-12-26T06:47:14.887Z,100346.78
2022-12-26T06:49:42.475Z,100341.28
2022-12-26T06:52:11.194Z,100344.84
2022-12-26T06:54:39.465Z,100351.97
2022-12-26T06:57:07.515Z,100348.25
2022-12-26T06:59:35.031Z,100346.78
2022-12-26T07:02:03.250Z,100347.16
2022-12-26T07:04:31.184Z,100353.22
2022-12-26T07:06:58.662Z,100338.75
2022-12-26T07:09:31.583Z,100341.75
2022-12-26T07:12:01.267Z,100347.62
2022-12-26T07:14:29.472Z,100359.03
2022-12-26T07:16:57.059Z,100369.44
2022-12-26T07:19:25.328Z,100374.78
2022-12-26T07:21:53.029Z,100367.28
2022-12-26T07:24:22.053Z,100378.47
2022-12-26T07:26:49.745Z,100376.59
2022-12-26T07:29:18.514Z,100375.50
2022-12-26T07:31:46.010Z,100375.16
2022-12-26T07:34:14.006Z,100377.28
2022-12-26T07:36:44.645Z,100381.50
2022-12-26T07:39:13.886Z,100379.63
2022-12-26T07:42:00.635Z,100377.41
2022-12-26T07:44:30.595Z,100390.13
2022-12-26T07:47:01.688Z,100383.63
2022-12-26T07:49:29.584Z,100381.44
2022-12-26T07:51:57.396Z,100378.12
2022-12-26T07:54:28.227Z,100389.47
2022-12-26T07:57:15.142Z,100390.25
2022-12-26T07:59:44.474Z,100392.16
2022-12-26T08:02:16.209Z,100399.37
2022-12-26T08:04:44.233Z,100402.34
2022-12-26T08:07:12.390Z,100396.66
2022-12-26T08:09:42.999Z,100399.37
2022-12-26T08:12:11.911Z,100394.91
2022-12-26T08:14:40.362Z,100393.72
2022-12-26T08:17:11.261Z,100388.12
2022-12-26T08:19:40.069Z,100394.75
2022-12-26T08:22:08.279Z,100394.44
2022-12-26T08:24:35.788Z,100398.03
2022-12-26T08:27:04.842Z,100406.78
2022-12-26T08:29:32.558Z,100406.91
2022-12-26T08:32:00.719Z,100404.19
2022-12-26T08:34:33.711Z,100405.97
2022-12-26T08:37:01.744Z,100409.19
2022-12-26T08:39:29.847Z,100404.62
2022-12-26T08:41:57.246Z,100414.91
2022-12-26T08:44:27.722Z,100408.28
2022-12-26T08:46:55.789Z,100415.12
2022-12-26T08:49:23.318Z,100415.75
2022-12-26T08:51:50.717Z,100411.62
2022-12-26T08:54:18.753Z,100402.09
2022-12-26T08:56:46.295Z,100405.97
2022-12-26T08:59:14.735Z,100409.06
2022-12-26T09:01:42.537Z,100406.16
2022-12-26T09:04:10.140Z,100403.72
2022-12-26T09:06:39.528Z,100414.38
2022-12-26T09:09:08.623Z,100413.06
2022-12-26T09:11:35.999Z,100415.09
2022-12-26T09:14:04.563Z,100421.31
2022-12-26T09:16:39.379Z,100422.50
2022-12-26T09:19:12.549Z,100434.56
2022-12-26T09:21:40.765Z,100432.09
2022-12-26T09:24:13.060Z,100423.31
2022-12-26T09:26:41.290Z,100428.25
2022-12-26T09:29:11.533Z,100428.03
2022-12-26T09:31:40.385Z,100424.22
2022-12-26T09:34:09.646Z,100430.06
2022-12-26T09:36:38.278Z,100424.09
2022-12-26T09:39:07.824Z,100423.75
2022-12-26T09:41:38.873Z,100432.84
2022-12-26T09:44:34.452Z,100413.87
2022-12-26T09:47:16.660Z,100414.88
2022-12-26T09:49:53.683Z,100416.25
2022-12-26T09:52:34.385Z,100423.84
2022-12-26T09:55:06.976Z,100419.47
2022-12-26T09:57:40.552Z,100410.28
2022-12-26T10:00:18.129Z,100419.34
2022-12-26T10:02:52.392Z,100420.56
2022-12-26T10:05:26.638Z,100411.25
2022-12-26T10:07:58.367Z,100405.50
2022-12-26T10:10:36.701Z,100408.72
2022-12-26T10:13:15.311Z,100406.53
2022-12-26T10:15:46.949Z,100404.06
2022-12-26T10:18:27.013Z,100404.47
2022-12-26T10:21:11.904Z,100399.53
2022-12-26T10:23:43.234Z,100394.00
2022-12-26T10:26:33.546Z,100391.91
2022-12-26T10:29:28.533Z,100383.50
2022-12-26T10:31:59.648Z,100377.22
2022-12-26T10:34:41.021Z,100373.78
2022-12-26T10:37:31.629Z,100364.16
2022-12-26T10:40:02.240Z,100364.16
2022-12-26T10:42:43.073Z,100357.50
2022-12-26T10:45:19.969Z,100353.62
2022-12-26T10:47:48.770Z,100358.50
2022-12-26T10:50:26.977Z,100362.78
2022-12-26T10:52:56.688Z,100347.34
2022-12-26T10:55:31.597Z,100339.22
2022-12-26T10:58:19.606Z,100343.56
2022-12-26T11:00:47.433Z,100333.47
2022-12-26T11:03:18.490Z,100335.34
2022-12-26T11:06:06.869Z,100323.06
2022-12-26T11:08:51.667Z,100317.44
2022-12-26T11:11:46.299Z,100319.53
2022-12-26T11:14:38.332Z,100306.53
2022-12-26T11:17:13.934Z,100302.50
2022-12-26T11:19:44.131Z,100299.47
2022-12-26T11:22:20.506Z,100298.88
2022-12-26T11:25:24.569Z,100300.12
2022-12-26T11:27:54.894Z,100283.38
2022-12-26T11:30:31.399Z,100292.06
2022-12-26T11:33:17.484Z,100301.69
2022-12-26T11:35:52.889Z,100297.22
2022-12-26T11:38:44.540Z,100304.16
2022-12-26T11:41:32.005Z,100307.47
2022-12-26T11:44:23.073Z,100307.75
2022-12-26T11:47:06.191Z,100297.94
2022-12-26T11:49:36.321Z,100293.69
2022-12-26T11:52:37.453Z,100298.91
2022-12-26T11:55:23.832Z,100302.19
2022-12-26T11:58:06.740Z,100290.66
2022-12-26T12:00:42.521Z,100300.22
2022-12-26T12:03:13.424Z,100301.97
2022-12-26T12:06:02.114Z,100286.34
2022-12-26T12:09:02.260Z,100300.50
2022-12-26T12:11:56.640Z,100304.00
2022-12-26T12:14:34.670Z,100296.12
2022-12-26T12:17:08.943Z,100293.34
2022-12-26T12:19:47.316Z,100285.06
2022-12-26T12:22:29.783Z,100275.84
2022-12-26T12:25:16.362Z,100284.00
2022-12-26T12:27:53.906Z,100287.59
2022-12-26T12:30:34.540Z,100289.19
2022-12-26T12:33:18.359Z,100276.66
2022-12-26T12:36:13.328Z,100274.50
2022-12-26T12:38:56.765Z,100289.81
2022-12-26T12:42:05.814Z,100278.25
2022-12-26T12:45:01.161Z,100284.16
2022-12-26T12:48:01.415Z,100283.31
2022-12-26T12:50:43.290Z,100268.81
2022-12-26T12:53:32.367Z,100261.00
2022-12-26T12:56:07.507Z,100257.66
2022-12-26T12:58:55.759Z,100260.87
2022-12-26T13:01:28.347Z,100257.91
2022-12-26T13:04:06.628Z,100261.84
2022-12-26T13:06:53.816Z,100253.87
2022-12-26T13:09:25.380Z,100253.87
2022-12-26T13:12:00.861Z,100252.28
2022-12-26T13:14:36.573Z,100247.94
2022-12-26T13:17:26.179Z,100253.47
2022-12-26T13:20:20.766Z,100256.06
2022-12-26T13:23:17.726Z,100263.63
2022-12-26T13:25:49.479Z,100270.56
2022-12-26T13:28:21.582Z,100258.38
2022-12-26T13:30:55.563Z,100269.78
2022-12-26T13:33:23.085Z,100265.13
2022-12-26T13:36:02.896Z,100260.72
2022-12-26T13:38:58.553Z,100264.63
2022-12-26T13:41:45.299Z,100259.19
2022-12-26T13:44:18.689Z,100264.81
2022-12-26T13:46:46.552Z,100267.53
2022-12-26T13:49:36.524Z,100269.94
2022-12-26T13:52:10.546Z,100273.09
2022-12-26T13:55:07.024Z,100271.28
2022-12-26T13:57:34.620Z,100273.50
2022-12-26T14:00:04.527Z,100268.59
2022-12-26T14:03:20.483Z,100271.28
2022-12-26T14:06:12.499Z,100278.75
2022-12-26T14:08:54.795Z,100275.03
2022-12-26T14:11:35.220Z,100289.03
2022-12-26T14:14:26.118Z,100282.66
2022-12-26T14:17:19.936Z,100282.66
2022-12-26T14:19:50.460Z,100289.69
2022-12-26T14:22:41.289Z,100280.63
2022-12-26T14:25:14.211Z,100280.97
2022-12-26T14:27:49.846Z,100285.41
2022-12-26T14:30:31.633Z,100288.37
2022-12-26T14:33:27.372Z,100295.69
2022-12-26T14:36:11.814Z,100288.37
2022-12-26T14:38:47.998Z,100294.59
2022-12-26T14:41:36.232Z,100293.09
2022-12-26T14:44:37.953Z,100298.09
2022-12-26T14:47:06.046Z,100302.25
2022-12-26T14:49:35.720Z,100313.94
2022-12-26T14:52:25.522Z,100306.78
2022-12-26T14:54:53.860Z,100305.00
2022-12-26T14:57:48.145Z,100301.53
2022-12-26T15:00:28.492Z,100289.28
2022-12-26T15:02:58.857Z,100278.72
2022-12-26T15:08:13.958Z,100281.53
2022-12-26T15:11:19.173Z,100277.81
2022-12-26T15:13:55.794Z,100284.34
2022-12-26T15:16:39.412Z,100280.09
2022-12-26T15:19:36.235Z,100279.56
2022-12-26T15:22:38.472Z,100286.94
2022-12-26T15:25:19.860Z,100276.34
2022-12-26T15:27:57.271Z,100274.16
2022-12-26T15:31:03.765Z,100277.25
2022-12-26T15:33:46.952Z,100272.00
2022-12-26T15:36:22.778Z,100279.22
2022-12-26T15:39:17.300Z,100272.84
2022-12-26T15:41:47.951Z,100267.78
2022-12-26T15:44:27.528Z,100270.75
2022-12-26T15:47:01.272Z,100278.59
2022-12-26T15:49:44.158Z,100284.91
2022-12-26T15:52:33.796Z,100284.91
2022-12-26T15:55:04.537Z,100288.69
2022-12-26T15:57:51.138Z,100287.84
2022-12-26T16:00:30.824Z,100290.88
2022-12-26T16:03:10.747Z,100285.34
2022-12-26T16:05:40.779Z,100289.44
2022-12-26T16:08:27.175Z,100283.97
2022-12-26T16:11:14.986Z,100284.59
2022-12-26T16:13:54.604Z,100274.41
2022-12-26T16:16:29.799Z,100276.81
2022-12-26T16:18:58.139Z,100275.13
2022-12-26T16:21:46.813Z,100284.06
2022-12-26T16:24:16.825Z,100279.41
2022-12-26T16:26:46.071Z,100274.81
2022-12-26T16:29:18.335Z,100272.00
2022-12-26T16:31:46.066Z,100271.50
2022-12-26T16:34:18.208Z,100256.59
2022-12-26T16:36:46.989Z,100256.97
2022-12-26T16:39:22.338Z,100262.38
2022-12-26T16:42:02.213Z,100269.19
2022-12-26T16:44:37.328Z,100261.75
2022-12-26T16:47:07.805Z,100259.28
2022-12-26T16:49:36.309Z,100264.63
2022-12-26T16:52:04.563Z,100258.50
2022-12-26T16:54:40.273Z,100271.84
2022-12-26T16:57:20.207Z,100277.28
2022-12-26T16:59:57.575Z,100271.94
2022-12-26T17:02:32.080Z,100266.44
2022-12-26T17:05:05.949Z,100269.34
2022-12-26T17:07:37.247Z,100272.69
2022-12-26T17:10:09.330Z,100268.69
2022-12-26T17:12:40.005Z,100261.56
2022-12-26T17:15:08.420Z,100259.66
2022-12-26T17:17:39.504Z,100265.31
2022-12-26T17:20:23.009Z,100253.84
2022-12-26T17:22:53.696Z,100262.50
2022-12-26T17:25:21.493Z,100262.59
2022-12-26T17:28:09.122Z,100253.59
2022-12-26T17:30:38.798Z,100251.13
2022-12-26T17:33:17.257Z,100249.91
2022-12-26T17:36:44.652Z,100249.78
2022-12-26T17:38:36.656Z,100258.72
2022-12-26T17:41:05.936Z,100264.22
2022-12-26T17:43:36.006Z,100271.41
2022-12-26T17:46:05.450Z,100268.03
2022-12-26T17:48:33.454Z,100262.06
2022-12-26T17:51:06.167Z,100260.59
2022-12-26T17:53:38.791Z,100268.19
2022-12-26T17:56:08.186Z,100263.91
2022-12-26T17:58:36.051Z,100254.22
2022-12-26T18:01:04.086Z,100245.19
2022-12-26T18:03:32.015Z,100249.75
2022-12-26T18:05:59.722Z,100240.53
2022-12-26T18:08:38.756Z,100242.78
2022-12-26T18:11:11.339Z,100248.25
2022-12-26T18:13:38.841Z,100235.56
2022-12-26T18:16:07.299Z,100240.94
2022-12-26T18:18:39.806Z,100244.91
2022-12-26T18:21:10.334Z,100235.09
2022-12-26T18:23:38.455Z,100216.84
2022-12-26T18:26:08.809Z,100225.72
2022-12-26T18:28:36.686Z,100225.03
2022-12-26T18:31:04.349Z,100211.66
2022-12-26T18:33:31.881Z,100210.69
2022-12-26T18:36:05.828Z,100221.91
2022-12-26T18:38:34.921Z,100222.25
2022-12-26T18:41:02.747Z,100212.31
2022-12-26T18:43:30.311Z,100211.19
2022-12-26T18:45:57.761Z,100217.38
2022-12-26T18:48:25.747Z,100213.66
2022-12-26T18:50:53.263Z,100216.53
2022-12-26T18:53:20.774Z,100212.38
2022-12-26T18:55:48.608Z,100215.12
2022-12-26T18:58:16.105Z,100212.69
2022-12-26T19:00:43.698Z,100204.41
2022-12-26T19:03:11.580Z,100201.03
2022-12-26T19:05:39.278Z,100201.16
2022-12-26T19:08:06.733Z,100209.78
2022-12-26T19:10:35.193Z,100204.38
2022-12-26T19:13:06.784Z,100205.78
2022-12-26T19:15:35.460Z,100205.84
2022-12-26T19:18:04.853Z,100222.47
2022-12-26T19:20:32.731Z,100219.59
2022-12-26T19:23:00.645Z,100207.84
2022-12-26T19:25:28.782Z,100207.84
2022-12-26T19:27:56.505Z,100207.25
2022-12-26T19:30:24.340Z,100203.31
2022-12-26T19:32:52.159Z,100209.00
2022-12-26T19:35:19.848Z,100213.81
2022-12-26T19:37:47.657Z,100216.59
2022-12-26T19:40:18.420Z,100216.25
2022-12-26T19:42:49.795Z,100220.09
2022-12-26T19:45:17.428Z,100222.84
2022-12-26T19:47:45.331Z,100214.88
2022-12-26T19:50:14.191Z,100221.28
2022-12-26T19:52:41.762Z,100214.25
2022-12-26T19:55:11.554Z,100223.41
2022-12-26T19:57:39.421Z,100215.75
2022-12-26T20:00:07.721Z,100208.78
2022-12-26T20:02:41.594Z,100206.78
2022-12-26T20:05:10.006Z,100214.16
2022-12-26T20:07:37.582Z,100229.75
2022-12-26T20:10:05.577Z,100236.31
2022-12-26T20:12:33.466Z,100267.19
2022-12-26T20:15:01.137Z,100278.00
2022-12-26T20:17:28.791Z,100260.31
2022-12-26T20:19:56.637Z,100265.28
2022-12-26T20:22:24.174Z,100265.31
2022-12-26T20:24:51.791Z,100277.75
2022-12-26T20:27:19.569Z,100251.47
2022-12-26T20:29:47.442Z,100251.94
2022-12-26T20:32:15.019Z,100254.03
2022-12-26T20:34:42.905Z,100239.59
2022-12-26T20:37:10.441Z,100241.69
2022-12-26T20:39:37.956Z,100242.75
2022-12-26T20:42:05.883Z,100238.72
2022-12-26T20:44:33.483Z,100233.37
2022-12-26T20:47:00.987Z,100215.69
2022-12-26T20:49:29.164Z,100208.81
2022-12-26T20:51:56.709Z,100214.75
2022-12-26T20:54:24.874Z,100213.03
2022-12-26T20:56:52.929Z,100214.41
2022-12-26T20:59:20.478Z,100202.84
2022-12-26T21:01:48.070Z,100209.28
2022-12-26T21:04:18.917Z,100213.78
2022-12-26T21:06:47.717Z,100207.63
2022-12-26T21:09:15.863Z,100209.69
2022-12-26T21:11:45.323Z,100204.84
2022-12-26T21:14:16.578Z,100202.50
2022-12-26T21:16:51.021Z,100216.84
2022-12-26T21:19:19.547Z,100242.72
2022-12-26T21:21:50.268Z,100248.91
2022-12-26T21:24:26.492Z,100249.44
2022-12-26T21:26:55.416Z,100240.56
2022-12-26T21:29:26.264Z,100246.09
2022-12-26T21:31:54.915Z,100245.75
2022-12-26T21:34:24.857Z,100247.56
2022-12-26T21:37:11.588Z,100242.84
2022-12-26T21:39:41.507Z,100238.47
2022-12-26T21:42:09.785Z,100233.22
2022-12-26T21:44:37.938Z,100229.84
2022-12-26T21:47:08.273Z,100230.37
2022-12-26T21:49:37.080Z,100235.44
2022-12-26T21:52:06.347Z,100239.81
2022-12-26T21:54:53.628Z,100229.00
2022-12-26T21:57:21.687Z,100237.28
2022-12-26T21:59:56.271Z,100240.72
2022-12-26T22:02:49.398Z,100231.53
2022-12-26T22:05:19.501Z,100237.19
2022-12-26T22:07:47.568Z,100238.09
2022-12-26T22:10:33.726Z,100237.09
2022-12-26T22:13:02.359Z,100232.81
2022-12-26T22:15:48.700Z,100243.84
2022-12-26T22:18:16.904Z,100236.19
2022-12-26T22:20:45.917Z,100238.66
2022-12-26T22:23:13.843Z,100238.22
2022-12-26T22:25:41.675Z,100246.34
2022-12-26T22:28:09.243Z,100233.91
2022-12-26T22:30:36.779Z,100230.47
2022-12-26T22:33:04.724Z,100242.59
2022-12-26T22:35:32.980Z,100237.13
2022-12-26T22:38:00.360Z,100241.13
2022-12-26T22:40:28.219Z,100235.59
2022-12-26T22:42:55.790Z,100217.66
2022-12-26T22:45:23.676Z,100216.72
2022-12-26T22:47:51.447Z,100225.34
2022-12-26T22:50:18.908Z,100231.06
2022-12-26T22:52:46.380Z,100227.53
2022-12-26T22:55:14.548Z,100222.56
2022-12-26T22:57:42.220Z,100214.81
2022-12-26T23:00:13.109Z,100220.78
2022-12-26T23:02:41.030Z,100233.53
2022-12-26T23:05:10.977Z,100237.16
2022-12-26T23:07:38.864Z,100245.06
2022-12-26T23:10:08.010Z,100264.78
2022-12-26T23:12:45.026Z,100266.00
2022-12-26T23:15:14.260Z,100268.59
2022-12-26T23:18:05.238Z,100276.41
2022-12-26T23:20:54.319Z,100288.72
2022-12-26T23:23:23.400Z,100280.84
2022-12-26T23:25:51.262Z,100268.09
2022-12-26T23:28:37.754Z,100266.50
2022-12-26T23:31:05.680Z,100265.03
2022-12-26T23:33:33.215Z,100277.41
2022-12-26T23:36:00.847Z,100263.22
2022-12-26T23:38:28.691Z,100244.78
2022-12-26T23:40:56.195Z,100261.00
2022-12-26T23:43:23.748Z,100258.84
2022-12-26T23:45:51.573Z,100271.06
2022-12-26T23:48:19.209Z,100269.53
2022-12-26T23:50:46.729Z,100271.34
2022-12-26T23:53:14.491Z,100272.19
2022-12-26T23:55:42.009Z,100276.69
2022-12-26T23:58:09.605Z,100276.41
